Guadeloupe : La 68e édition du Tour Cycliste International

Alain Paulmin Dimanche 05 août 2018

1er tronçon : Moule / Basse-Terre 106 km GUICHARD Mickael TEAM PRO IMMO NICOLAS ROUX  fait coup double.

Particularités :
Petit Havre 32,300 km GPM4 / Sapotille 89'800 km GPM 2et Dolé 99'400 km GPM2

PORT DES MAILLOTS POUR LA PROCHAINE ETAPE
A l'issue de l'étape n° 1 Résultats officiels
Maillot Dos J Nom du coureur Nom de l'équipe

Jaune 25 RAMOTHE Cedric KARUKERA ASSAINISSEMENT PDL Général individuel au temps REGION GUADELOUPE
Bleu 3 BONNET Pierre TEAM PRO IMMO NICOLAS ROUX Général individuel aux points CONSEIL DEPARTEMENTAL DE LA GU
Pois rouges 5 GUICHARD Mickael TEAM PRO IMMO NICOLAS ROUX Général Meilleur Grimpeur CORSAIR International
Blanc 111 GERAN Ronald CSCA PROPRETE 2000 XG énéral Meilleur Jeune CAISSE D’EPARGNE
Fushia 62 MILAN Diego INTEJA DCTG énéral Combiné GUADELOUPE POLE CARAIBES
Orange 231 EUSTACHE Cédric SELECTION MARTINIQUEG énéral Points Chauds EDF AGIR PLUS
Vert 11 GRANIGAN Noah CCB FOUNDATION - SICLERIG énéral Combativité

CLASSEMENT DE L'ETAPE
Résultats Etape n°2 (Tronçon 1) - Troncon 1 - MOULE - BASSE TERRE Dimanche 05 Août 2018


Nombre de km : 106,000
42,980 km/heure Moyenne du vainqueur :

5 10010100007 GUICHARD Mickael TEAM PRO IMMO NICOLAS ROUX 02:27:58:001
234 10010163863 SYLVESTRE Yolan SELECTION MARTINIQUE 02:29:58:00 00:02:00:002
62 10003120047 MILAN Diego INTEJA DCT 02:29:58:00 00:02:00:003
144 10010983212 DIAZ ESPITIA José Léonel TEAM CCD 02:29:58:00 00:02:00:004
236 10006527676 ROSEAU Willy SELECTION MARTINIQUE 02:29:58:00 00:02:00:005
4 10012064659 ALMEIDA Pierre TEAM PRO IMMO NICOLAS ROUX 02:30:02:00 00:02:04:006
125 10027697524 SALINAS DUQUE Jhonathan UNI SPORT LAMENTINOIS 02:30:02:00 00:02:04:007
61 10054655945 MANCEBO Francisco INTEJA DCT 02:30:02:00 00:02:04:008
146 10076908856 CARENE Boris TEAM CCD 02:30:02:00 00:02:04:009
161 10005566770 SABLON Luis TEAM NICOLAS DUBOIS - VCC 02:30:02:00 00:02:04:001 0
6 10014768232 CHASSAGNE Thomas TEAM PRO IMMO NICOLAS ROUX 02:30:02:00 00:02:04:001 1
203 10042724844 RIVERA GUERRERO Ever Alexander VELO CLUB DE GRAND CASE 02:30:09:00 00:02:11:001 2
1 10005890510 FOURNET FAYARD Sebastien TEAM PRO IMMO NICOLAS ROUX 02:30:09:00 00:02:11:001 3
245 10002226940 LANGLOIS Bruno AIR ANTILLES BARBADOS 02:30:09:00 00:02:11:001 4
221 10002879870 NAVA Jhon GWADA BIKERS 118 02:30:09:00 00:02:11:001 5
11 10009353612 X GRANIGAN Noah CCB FOUNDATION - SICLERI 02:30:13:00 00:02:15:001 6
204 10010167604 PARRA SUAREZ Hernan Dario VELO CLUB DE GRAND CASE 02:30:13:00 00:02:15:001 7
65 10011231873 GUERRERO BONITA Pablo INTEJA DCT 02:30:13:00 00:02:15:001 8
124 10081045605 RODRIGUEZ GALINDO Mick UNI SPORT LAMENTINOIS 02:30:23:00 00:02:25:001 9
145 10081059446 SANCHEZ ANZOLA Edwin TEAM CCD 02:30:59:00 00:03:01:002 0
171 10012701526 BLONDIN Grégory EXCELSIOR 02:30:59:00 00:03:01:002 1
223 10015344572 KARIOUA Kévin GWADA BIKERS 118 02:31:14:00 00:03:16:002 2
115 10027669333 X PHAETON Collins CSCA PROPRETE 2000 02:31:30:00 00:03:32:002 3
162 10074497701 VARGAS Freddy TEAM NICOLAS DUBOIS - VCC 02:31:59:00 00:04:01:002 4
22 10015343663 X LAVIOLETTE Loic KARUKERA ASSAINISSEMENT PD 02:31:59:00 00:04:01:002 5
133 10026612639 KWIATKOWSKI Grzegorz Jan UNION VELOCIPEDIQUE DE MARI 02:32:00:00 00:04:02:002 6
94 10080990536 MEDINA Raphael VELO DU CENTRE ET DE LA CAR 02:32:00:00 00:04:02:002 7
111 10016211108 X GERAN Ronald CSCA PROPRETE 2000 02:32:00:00 00:04:02:002 8
222 10011791039 FUENTES Yorman GWADA BIKERS 118 02:32:03:00 00:04:05:002 9
231 10007446550 EUSTACHE Cédric SELECTION MARTINIQUE 02:32:14:00 00:04:16:003 0
232 10015342754 STANISLAS Mickaël SELECTION MARTINIQUE 02:32:55:00 00:04:57:003 1
264 10015290315 X JASSERAND Valentin BOURG EN BRESS 02:33:05:00 00:05:07:003 2
261 10015726411 X MOINE Quentin BOURG EN BRESS 02:33:54:00 00:05:56:003 3
91 10007902551 LANCLUME Jules VELO DU CENTRE ET DE LA CAR 02:34:02:00 00:06:04:003 4
52 10012700314 LEGRAND Carl UNION VELOCIPEDIQUE DU NORD 02:34:02:00 00:06:04:003 5
126 10014665572 PRUNEAU Jordy UNI SPORT LAMENTINOIS 02:34:10:00 00:06:12:003 6
175 10015343360 LOCATIN CEDRIC EXCELSIOR 02:34:10:00 00:06:12:003 7
2 10011940781 THOMASSON Nicolas TEAM PRO IMMO NICOLAS ROUX 02:34:10:00 00:06:12:003 8
51 10007531729 BAROLIN Keran UNION VELOCIPEDIQUE DU NORD 02:34:10:00 00:06:12:003 9
123 10014075690 ERRIN Grégory UNI SPORT LAMENTINOIS 02:34:10:00 00:06:12:004 0
182 10025073773 THEOPHILE Laury JEUNESSE CYCLISTE DES ABYM 02:34:10:00 00:06:12:004 1
142 10064540548 MARTINEZ URENA Jorge Luis TEAM CCD 02:34:15:00 00:06:17:004 2
141 10013164496 CHEVALIER MARONI Damien TEAM CCD 02:34:15:00 00:06:17:004 3
192 10014075892 TARANNE Teddy USR VELO STPA 02:34:15:00 00:06:17:004 4
14 10015484214 COLLINS Patrick CCB FOUNDATION - SICLERI 02:34:34:00 00:06:36:004 5
21 10014665471 LUTIN Larry KARUKERA ASSAINISSEMENT PD 02:34:59:00 00:07:01:004 6
183 10026597380 X DELOUMEAUX Jérémy JEUNESSE CYCLISTE DES ABYM 02:35:23:00 00:07:25:004 7
116 10073678049 ROUSSEAU Giovanny CSCA PROPRETE 2000 02:35:49:00 00:07:51:004 8
3 10009571052 BONNET Pierre TEAM PRO IMMO NICOLAS ROUX 02:36:07:00 00:08:09:004 9
63 10002689308 SARABIA Ignacio INTEJA DCT 02:36:07:00 00:08:09:005 0
76 10012048592 ROULON Fwanswajino RAYON D ARGENT 02:36:15:00 00:08:17:005 1
93 10013556035 BARNY Naïddjy VELO DU CENTRE ET DE LA CAR 02:36:17:00 00:08:19:005 2
13 10064521754 X HUMPHREYS Thomas CCB FOUNDATION - SICLERI 02:36:21:00 00:08:23:005 3
252 10014542304 KRUSCHEWSKI Fabian TEAM EMBRACE THE WORLD 02:36:22:00 00:08:24:005 4
23 10016210300 X MAGDELEINE Melvin KARUKERA ASSAINISSEMENT PD 02:36:32:00 00:08:34:005 5
25 10006566274 RAMOTHE Cedric KARUKERA ASSAINISSEMENT PD 02:36:32:00 00:08:34:005 6
121 10011208736 BOYEAU Fendley UNI SPORT LAMENTINOIS 02:36:34:00 00:08:36:005 7
33 10010164065 NACTO Jordan VELO CLUB SAINTANNAIS 02:36:34:00 00:08:36:005 8
174 10014075488 DAMASE Jean-Louis EXCELSIOR 02:36:41:00 00:08:43:005 9
151 10052756260 SUARES Gilles ASSOCIATION CYCLISTE DU LEV 02:36:41:00 00:08:43:006 0
24 10014666077 JOACHIM Steevy KARUKERA ASSAINISSEMENT PD 02:36:44:00 00:08:46:006 1
233 10014076603 RAGOT Thierry SELECTION MARTINIQUE 02:36:44:00 00:08:46:006 2
72 10028013075 GIBLACA Fabrice RAYON D ARGENT 02:36:45:00 00:08:47:006 3
193 10027662562 LAROCHELLE Stephane USR VELO STPA 02:36:45:00 00:08:47:006 4
176 10004666084 THEOBALD Frédéric EXCELSIOR 02:36:45:00 00:08:47:006 5
191 10012045865 ALIDOR Adrien USR VELO STPA 02:36:46:00 00:08:48:006 6
173 10016210195 X BORDEE Gaël EXCELSIOR 02:36:46:00 00:08:48:006 7
122 10065631392 CLARICO Mickael UNI SPORT LAMENTINOIS 02:36:46:00 00:08:48:006 8
152 10027296790 X AJINCAS Lucas ASSOCIATION CYCLISTE DU LEV 02:36:46:00 00:08:48:006 9
235 10026351042 LARGITTE COPPET Kévin SELECTION MARTINIQUE 02:36:46:00 00:08:48:007 0
202 10002250683 TURPIN Ludovic VELO CLUB DE GRAND CASE 02:36:46:00 00:08:48:007 1
164 10006566375 CORNELIE Fabrice TEAM NICOLAS DUBOIS - VCC 02:36:46:00 00:08:48:007 2
241 10010643914 X KELLY Joshua AIR ANTILLES BARBADOS 02:36:46:00 00:08:48:007 3
196 10025421458 JEANNE Wladimir USR VELO STPA 02:36:47:00 00:08:49:007 4
26 10014666279 VINETOT Romain KARUKERA ASSAINISSEMENT PD 02:36:47:00 00:08:49:007 5
32 10013166318 DURO Kelian VELO CLUB SAINTANNAIS 02:36:48:00 00:08:50:007 6
143 10004591316 HAMLET Freddy TEAM CCD 02:36:48:00 00:08:50:007 7
181 10005551414 LANDRE Teddy JEUNESSE CYCLISTE DES ABYM 02:36:49:00 00:08:51:007 8
263 10025835326 LEMLER Tony BOURG EN BRESS 02:36:56:00 00:08:58:007 9
75 10014664764 LEREMON Gimmy RAYON D ARGENT 02:36:57:00 00:08:59:008 0
64 10007419975 AGUIRRE Jose INTEJA DCT 02:37:00:00 00:09:02:008 1
172 10025492691 X DAMAS Anthony EXCELSIOR 02:37:04:00 00:09:06:008 2
35 10027319123 X DURO Nicolas VELO CLUB SAINTANNAIS 02:37:05:00 00:09:07:008 3
201 10007366122 CURIER Olivier VELO CLUB DE GRAND CASE 02:37:10:00 00:09:12:008 4
186 10016211310 X LORQUIN Kénan JEUNESSE CYCLISTE DES ABYM 02:39:21:00 00:11:23:008 5
184 10016210906 X DABRION Rogan JEUNESSE CYCLISTE DES ABYM 02:39:51:00 00:11:53:008 6
165 10026332652 X GENE Meving TEAM NICOLAS DUBOIS - VCC 02:40:48:00 00:12:50:008 7
153 10026153810 DORLIN Henryck ASSOCIATION CYCLISTE DU LEV 02:40:48:00 00:12:50:008 8
256 10008725334 MARCEL Fröse TEAM EMBRACE THE WORLD 02:40:48:00 00:12:50:008 9
254 10011805284 NIESING T imo TEAM EMBRACE THE WORLD 02:41:06:00 00:13:08:009 0
253 10046184916 DUFFNER Stephan TEAM EMBRACE THE WORLD 02:41:06:00 00:13:08:009 1
185 10016209690 X LOUISOR Alrick JEUNESSE CYCLISTE DES ABYM 02:41:21:00 00:13:23:009 2
53 10013555126 MATOU Kenny UNION VELOCIPEDIQUE DU NORD 02:41:27:00 00:13:29:009 3
112 10014075791 JUDITH Marvin CSCA PROPRETE 2000 02:41:28:00 00:13:30:009 4
166 10014666178 RELMY Widgy TEAM NICOLAS DUBOIS - VCC 02:41:36:00 00:13:38:009 5
114 10073814152 MINY Régis CSCA PROPRETE 2000 02:41:43:00 00:13:45:009 6
95 10016209791 X LEOGANE Feliscyo VELO DU CENTRE ET DE LA CAR 02:42:18:00 00:14:20:009 7
251 10014115504 X PESCHGES Marcel TEAM EMBRACE THE WORLD 02:42:35:00 00:14:37:009 8
66 10009778994 CUETO Juan José INTEJA DCT 02:42:35:00 00:14:37:009 9
255 10036476327 MENIA Stefan TEAM EMBRACE THE WORLD 02:42:35:00 00:14:37:001 00
205 10008960558 ROUSSEAU Jayson VELO CLUB DE GRAND CASE 02:44:06:00 00:16:08:001 01
74 10008149192 MARIMOUTOU Jean Marie RAYON D ARGENT 02:53:27:00 00:25:29:001 02
246 10019931108 WYMAN Christopher AIR ANTILLES BARBADOS 02:53:27:00 00:25:29:001 03
113 10027596682 X LARGITTE Jeiël CSCA PROPRETE 2000 02:54:25:00 00:26:27:001 04
195 10006050558 ATTAUD Frédéric USR VELO STPA 02:57:13:00 00:29:15:001 05
36 10026878882 X POLIPHEME Anthony VELO CLUB SAINTANNAIS 02:57:13:00 00:29:15:001 06
224 10077330202 TURPIN Olivier GWADA BIKERS 118 02:57:14:00 00:29:16:001 07
225 10080377820 MOUNSAMY Dino GWADA BIKERS 118 02:57:14:00 00:29:16:001 08
132 10081729655 NERE Nicolas UNION VELOCIPEDIQUE DE MARI 02:57:57:00 00:29:59:001 09
12 10049918002 X MEAD-VANCORT Jonah CCB FOUNDATION - SICLERI 03:09:15:00 00:41:17:001 10

CLASSEMENT GENERAL INDIVIDUEL AU TEMPS A l'issue de l'étape n° 2 (Tronçon 1) (05/08/18) Sponsor : REGION GUADELOUPE
Résultats provisoires Moy/Km : 42,181 km/h
TOUR DE LA GUADELOUPE 2018 68è édition - U.C.I Classe ME 2.2 269,000 km parcourus


1 5 GUICHARD Mickael TEAM PRO IMMO NICOLAS ROUX 10010100007 06:22:38:00 __:__:__
2 62 MILAN Diego INTEJA DCT 10003120047 06:24:39:00 00:02:01
3 234 SYLVESTRE Yolan SELECTION MARTINIQUE 10010163863 06:24:40:00 00:02:02
4 144 DIAZ ESPITIA José Léonel TEAM CCD 10010983212 06:24:41:00 00:02:03
5 236 ROSEAU Willy SELECTION MARTINIQUE 10006527676 06:24:44:00 00:02:06
6 125 SALINAS DUQUE Jhonathan UNI SPORT LAMENTINOIS 10027697524 06:24:48:00 00:02:10
7 61 MANCEBO Francisco INTEJA DCT 10054655945 06:24:48:00 00:02:10
8 161 SABLON Luis TEAM NICOLAS DUBOIS - VCC 10005566770 06:24:48:00 00:02:10
9 146 CARENE Boris TEAM CCD 10076908856 06:24:48:00 00:02:10
10 6 CHASSAGNE Thomas TEAM PRO IMMO NICOLAS ROUX 10014768232 06:24:48:00 00:02:10
11 4 ALMEIDA Pierre TEAM PRO IMMO NICOLAS ROUX 10012064659 06:24:48:00 00:02:10
12 245 LANGLOIS Bruno AIR ANTILLES BARBADOS 10002226940 06:24:54:00 00:02:16
13 11 X GRANIGAN Noah CCB FOUNDATION - SICLERI 10009353612 06:24:55:00 00:02:17
14 203 RIVERA GUERRERO Ever Alexander VELO CLUB DE GRAND CASE 10042724844 06:24:55:00 00:02:17
15 1 FOURNET FAYARD Sebastien TEAM PRO IMMO NICOLAS ROUX 10005890510 06:24:55:00 00:02:17
16 221 NAVA Jhon GWADA BIKERS 118 10002879870 06:24:55:00 00:02:17
17 65 GUERRERO BONITA Pablo INTEJA DCT 10011231873 06:24:57:00 00:02:19
18 204 PARRA SUAREZ Hernan Dario VELO CLUB DE GRAND CASE 10010167604 06:24:59:00 00:02:21
19 124 RODRIGUEZ GALINDO Mick UNI SPORT LAMENTINOIS 10081045605 06:25:09:00 00:02:31
20 171 BLONDIN Grégory EXCELSIOR 10012701526 06:25:59:00 00:03:21
21 145 SANCHEZ ANZOLA Edwin TEAM CCD 10081059446 06:26:06:00 00:03:28
22 223 KARIOUA Kévin GWADA BIKERS 118 10015344572 06:26:21:00 00:03:43
23 115 X PHAETON Collins CSCA PROPRETE 2000 10027669333 06:26:30:00 00:03:52
24 162 VARGAS Freddy TEAM NICOLAS DUBOIS - VCC 10074497701 06:26:45:00 00:04:07
25 22 X LAVIOLETTE Loic KARUKERA ASSAINISSEMENT P 10015343663 06:26:45:00 00:04:07
26 111 X GERAN Ronald CSCA PROPRETE 2000 10016211108 06:26:46:00 00:04:08
27 231 EUSTACHE Cédric SELECTION MARTINIQUE 10007446550 06:26:55:00 00:04:17
28 94 MEDINA Raphael VELO DU CENTRE ET DE LA CAR 10080990536 06:27:07:00 00:04:29
29 133 KWIATKOWSKI Grzegorz Jan UNION VELOCIPEDIQUE DE MAR 10026612639 06:27:20:00 00:04:42
30 232 STANISLAS Mickaël SELECTION MARTINIQUE 10015342754 06:27:40:00 00:05:02
31 222 FUENTES Yorman GWADA BIKERS 118 10011791039 06:27:40:00 00:05:02
32 52 LEGRAND Carl UNION VELOCIPEDIQUE DU NOR 10012700314 06:28:48:00 00:06:10
33 2 THOMASSON Nicolas TEAM PRO IMMO NICOLAS ROUX 10011940781 06:28:50:00 00:06:12
34 123 ERRIN Grégory UNI SPORT LAMENTINOIS 10014075690 06:28:56:00 00:06:18
35 126 PRUNEAU Jordy UNI SPORT LAMENTINOIS 10014665572 06:28:56:00 00:06:18
36 175 LOCATIN CEDRIC EXCELSIOR 10015343360 06:28:56:00 00:06:18
37 182 THEOPHILE Laury JEUNESSE CYCLISTE DES ABY 10025073773 06:28:56:00 00:06:18
38 142 MARTINEZ URENA Jorge Luis TEAM CCD 10064540548 06:29:01:00 00:06:23
39 192 TARANNE Teddy USR VELO STPA 10014075892 06:29:01:00 00:06:23
40 51 BAROLIN Keran UNION VELOCIPEDIQUE DU NOR 10007531729 06:29:10:00 00:06:32
41 261 X MOINE Quentin BOURG EN BRESS 10015726411 06:29:10:00 00:06:32
42 141 CHEVALIER MARONI Damien TEAM CCD 10013164496 06:29:22:00 00:06:44
43 21 LUTIN Larry KARUKERA ASSAINISSEMENT P 10014665471 06:29:45:00 00:07:07
44 183 X DELOUMEAUX Jérémy JEUNESSE CYCLISTE DES ABY 10026597380 06:30:09:00 00:07:31
45 3 BONNET Pierre TEAM PRO IMMO NICOLAS ROUX 10009571052 06:30:47:00 00:08:09
46 63 SARABIA Ignacio INTEJA DCT 10002689308 06:30:50:00 00:08:12
47 25 RAMOTHE Cedric KARUKERA ASSAINISSEMENT P 10006566274 06:31:05:00 00:08:27
48 121 BOYEAU Fendley UNI SPORT LAMENTINOIS 10011208736 06:31:20:00 00:08:42
49 76 ROULON Fwanswajino RAYON D ARGENT 10012048592 06:31:22:00 00:08:44
50 116 ROUSSEAU Giovanny CSCA PROPRETE 2000 10073678049 06:31:26:00 00:08:48
51 151 SUARES Gilles ASSOCIATION CYCLISTE DU LEV 10052756260 06:31:27:00 00:08:49
52 174 DAMASE Jean-Louis EXCELSIOR 10014075488 06:31:27:00 00:08:49
53 193 LAROCHELLE Stephane USR VELO STPA 10027662562 06:31:31:00 00:08:53
54 176 THEOBALD Frédéric EXCELSIOR 10004666084 06:31:31:00 00:08:53
55 93 BARNY Naïddjy VELO DU CENTRE ET DE LA CAR 10013556035 06:31:33:00 00:08:55
56 32 DURO Kelian VELO CLUB SAINTANNAIS 10013166318 06:31:34:00 00:08:56
57 252 KRUSCHEWSKI Fabian TEAM EMBRACE THE WORLD 10014542304 06:31:38:00 00:09:00
58 202 TURPIN Ludovic VELO CLUB DE GRAND CASE 10002250683 06:31:46:00 00:09:08
59 191 ALIDOR Adrien USR VELO STPA 10012045865 06:31:53:00 00:09:15
60 23 X MAGDELEINE Melvin KARUKERA ASSAINISSEMENT P 10016210300 06:31:54:00 00:09:16
61 26 VINETOT Romain KARUKERA ASSAINISSEMENT P 10014666279 06:31:54:00 00:09:16
62 201 CURIER Olivier VELO CLUB DE GRAND CASE 10007366122 06:31:56:00 00:09:18
63 64 AGUIRRE Jose INTEJA DCT 10007419975 06:32:16:00 00:09:38
64 164 CORNELIE Fabrice TEAM NICOLAS DUBOIS - VCC 10006566375 06:32:36:00 00:09:58
65 253 DUFFNER Stephan TEAM EMBRACE THE WORLD 10046184916 06:35:52:00 00:13:14
66 185 X LOUISOR Alrick JEUNESSE CYCLISTE DES ABY 10016209690 06:36:07:00 00:13:29
67 112 JUDITH Marvin CSCA PROPRETE 2000 10014075791 06:37:26:00 00:14:48
68 95 X LEOGANE Feliscyo VELO DU CENTRE ET DE LA CAR 10016209791 06:38:26:00 00:15:48
69 264 X JASSERAND Valentin BOURG EN BRESS 10015290315 06:42:03:00 00:19:25
70 14 COLLINS Patrick CCB FOUNDATION - SICLERI 10015484214 06:42:19:00 00:19:41
71 91 LANCLUME Jules VELO DU CENTRE ET DE LA CAR 10007902551 06:44:57:00 00:22:19
72 173 X BORDEE Gaël EXCELSIOR 10016210195 06:45:00:00 00:22:22
73 33 NACTO Jordan VELO CLUB SAINTANNAIS 10010164065 06:45:32:00 00:22:54
74 24 JOACHIM Steevy KARUKERA ASSAINISSEMENT P 10014666077 06:45:42:00 00:23:04
75 233 RAGOT Thierry SELECTION MARTINIQUE 10014076603 06:45:42:00 00:23:04
76 72 GIBLACA Fabrice RAYON D ARGENT 10028013075 06:45:43:00 00:23:05
77 152 X AJINCAS Lucas ASSOCIATION CYCLISTE DU LEV 10027296790 06:45:44:00 00:23:06
78 122 CLARICO Mickael UNI SPORT LAMENTINOIS 10065631392 06:45:44:00 00:23:06
79 241 X KELLY Joshua AIR ANTILLES BARBADOS 10010643914 06:45:44:00 00:23:06
80 235 LARGITTE COPPET Kévin SELECTION MARTINIQUE 10026351042 06:45:44:00 00:23:06
81 196 JEANNE Wladimir USR VELO STPA 10025421458 06:45:45:00 00:23:07
82 75 LEREMON Gimmy RAYON D ARGENT 10014664764 06:45:55:00 00:23:17
83 35 X DURO Nicolas VELO CLUB SAINTANNAIS 10027319123 06:46:03:00 00:23:25
84 143 HAMLET Freddy TEAM CCD 10004591316 06:46:08:00 00:23:30
85 181 LANDRE Teddy JEUNESSE CYCLISTE DES ABY 10005551414 06:46:08:00 00:23:30
86 186 X LORQUIN Kénan JEUNESSE CYCLISTE DES ABY 10016211310 06:48:19:00 00:25:41
87 184 X DABRION Rogan JEUNESSE CYCLISTE DES ABY 10016210906 06:48:49:00 00:26:11
88 256 MARCEL Fröse TEAM EMBRACE THE WORLD 10008725334 06:49:46:00 00:27:08
89 254 NIESING T imo TEAM EMBRACE THE WORLD1 0011805284 06:50:04:00 00:27:26
90 172 X DAMAS Anthony EXCELSIOR 10025492691 06:50:08:00 00:27:30
91 66 CUETO Juan José INTEJA DCT 10009778994 06:50:19:00 00:27:41
92 251 X PESCHGES Marcel TEAM EMBRACE THE WORLD 10014115504 06:50:20:00 00:27:42
93 53 MATOU Kenny UNION VELOCIPEDIQUE DU NOR 10013555126 06:50:25:00 00:27:47
94 166 RELMY Widgy TEAM NICOLAS DUBOIS - VCC 10014666178 06:50:34:00 00:27:56
95 114 MINY Régis CSCA PROPRETE 2000 10073814152 06:50:41:00 00:28:03
96 255 MENIA Stefan TEAM EMBRACE THE WORLD 10036476327 06:51:33:00 00:28:55
97 205 ROUSSEAU Jayson VELO CLUB DE GRAND CASE 10008960558 06:54:06:00 00:31:28
98 165 X GENE Meving TEAM NICOLAS DUBOIS - VCC 10026332652 06:56:09:00 00:33:31
99 74 MARIMOUTOU Jean Marie RAYON D ARGENT 10008149192 07:02:25:00 00:39:47
100 246 WYMAN Christopher AIR ANTILLES BARBADOS 10019931108 07:02:25:00 00:39:47
101 113 X LARGITTE Jeiël CSCA PROPRETE 2000 10027596682 07:03:23:00 00:40:45
102 195 ATTAUD Frédéric USR VELO STPA 10006050558 07:04:58:00 00:42:20
103 36 X POLIPHEME Anthony VELO CLUB SAINTANNAIS 10026878882 07:06:11:00 00:43:33
104 224 TURPIN Olivier GWADA BIKERS 118 10077330202 07:06:12:00 00:43:34
105 225 MOUNSAMY Dino GWADA BIKERS 118 10080377820 07:06:12:00 00:43:34
106 13 X HUMPHREYS Thomas CCB FOUNDATION - SICLERI 10064521754 07:06:24:00 00:43:46
107 132 NERE Nicolas UNION VELOCIPEDIQUE DE MAR 10081729655 07:06:55:00 00:44:17
108 153 DORLIN Henryck ASSOCIATION CYCLISTE DU LEV 10026153810 07:09:31:00 00:46:53
109 263 LEMLER Tony BOURG EN BRESS 10025835326 07:10:21:00 00:47:43
110 12 X MEAD-VANCORT Jonah CCB FOUNDATION - SICLERI 10049918002 07:18:13:00 00:55:35